createdAt,value
2023-04-23T00:00:15.954Z,8.51
2023-04-23T00:02:47.171Z,8.53
2023-04-23T00:05:16.741Z,8.54
2023-04-23T00:07:45.625Z,8.53
2023-04-23T00:10:14.136Z,8.53
2023-04-23T00:12:43.934Z,8.52
2023-04-23T00:15:14.056Z,8.52
2023-04-23T00:17:43.423Z,8.50
2023-04-23T00:20:12.038Z,8.48
2023-04-23T00:22:40.896Z,8.47
2023-04-23T00:25:11.177Z,8.47
2023-04-23T00:27:39.719Z,8.47
2023-04-23T00:30:09.342Z,8.48
2023-04-23T00:32:38.894Z,8.48
2023-04-23T00:35:08.777Z,8.46
2023-04-23T00:37:37.858Z,8.44
2023-04-23T00:40:07.985Z,8.41
2023-04-23T00:42:37.418Z,8.38
2023-04-23T00:45:09.587Z,8.37
2023-04-23T00:47:40.662Z,8.34
2023-04-23T00:50:10.006Z,8.31
2023-04-23T00:52:41.109Z,8.28
2023-04-23T00:55:09.591Z,8.22
2023-04-23T00:57:38.820Z,8.17
2023-04-23T01:00:08.850Z,8.12
2023-04-23T01:02:38.878Z,8.06
2023-04-23T01:05:09.713Z,8.01
2023-04-23T01:07:39.403Z,7.96
2023-04-23T01:10:09.265Z,7.90
2023-04-23T01:12:38.446Z,7.85
2023-04-23T01:15:07.957Z,7.82
2023-04-23T01:17:37.332Z,7.78
2023-04-23T01:20:06.789Z,7.76
2023-04-23T01:22:38.739Z,7.73
2023-04-23T01:25:08.487Z,7.71
2023-04-23T01:27:37.445Z,7.69
2023-04-23T01:30:06.487Z,7.69
2023-04-23T01:32:36.317Z,7.67
2023-04-23T01:35:05.275Z,7.66
2023-04-23T01:37:35.079Z,7.64
2023-04-23T01:40:03.537Z,7.62
2023-04-23T01:42:32.089Z,7.58
2023-04-23T01:45:01.784Z,7.54
2023-04-23T01:47:30.816Z,7.51
2023-04-23T01:49:59.264Z,7.47
2023-04-23T01:52:27.665Z,7.45
2023-04-23T01:54:56.069Z,7.43
2023-04-23T01:57:26.800Z,7.42
2023-04-23T02:00:08.511Z,7.40
2023-04-23T02:02:44.634Z,7.36
2023-04-23T02:05:18.845Z,7.33
2023-04-23T02:07:49.825Z,7.31
2023-04-23T02:10:19.003Z,7.31
2023-04-23T02:12:47.620Z,7.31
2023-04-23T02:15:16.710Z,7.30
2023-04-23T02:17:45.232Z,7.29
2023-04-23T02:20:13.765Z,7.30
2023-04-23T02:22:43.095Z,7.33
2023-04-23T02:25:12.319Z,7.35
2023-04-23T02:27:41.439Z,7.38
2023-04-23T02:30:11.805Z,7.41
2023-04-23T02:32:41.985Z,7.44
2023-04-23T02:35:10.967Z,7.46
2023-04-23T02:37:39.990Z,7.49
2023-04-23T02:40:09.542Z,7.52
2023-04-23T02:42:38.589Z,7.55
2023-04-23T02:45:07.934Z,7.58
2023-04-23T02:47:37.031Z,7.59
2023-04-23T02:50:06.891Z,7.60
2023-04-23T02:52:35.886Z,7.61
2023-04-23T02:55:05.039Z,7.62
2023-04-23T02:57:33.924Z,7.64
2023-04-23T03:00:04.570Z,7.65
2023-04-23T03:02:36.946Z,7.66
2023-04-23T03:05:06.810Z,7.65
2023-04-23T03:07:35.840Z,7.64
2023-04-23T03:10:04.352Z,7.63
2023-04-23T03:12:32.921Z,7.63
2023-04-23T03:15:02.149Z,7.63
2023-04-23T03:17:32.398Z,7.64
2023-04-23T03:20:01.069Z,7.66
2023-04-23T03:22:29.902Z,7.68
2023-04-23T03:24:58.296Z,7.70
2023-04-23T03:27:27.212Z,7.72
2023-04-23T03:29:56.329Z,7.72
2023-04-23T03:32:24.880Z,7.71
2023-04-23T03:34:53.365Z,7.71
2023-04-23T03:37:25.966Z,7.72
2023-04-23T03:39:54.376Z,7.72
2023-04-23T03:42:22.970Z,7.73
2023-04-23T03:44:51.572Z,7.73
2023-04-23T03:47:20.248Z,7.75
2023-04-23T03:49:48.775Z,7.76
2023-04-23T03:52:17.611Z,7.76
2023-04-23T03:54:46.055Z,7.76
2023-04-23T03:57:19.645Z,7.78
2023-04-23T04:00:12.085Z,7.80
2023-04-23T04:02:43.770Z,7.81
2023-04-23T04:05:12.690Z,7.81
2023-04-23T04:07:41.556Z,7.84
2023-04-23T04:10:10.270Z,7.89
2023-04-23T04:12:41.269Z,7.94
2023-04-23T04:15:11.843Z,7.99
2023-04-23T04:17:40.829Z,8.08
2023-04-23T04:20:10.484Z,8.15
2023-04-23T04:22:40.013Z,8.22
2023-04-23T04:25:08.818Z,8.27
2023-04-23T04:27:39.467Z,8.30
2023-04-23T04:30:09.319Z,8.35
2023-04-23T04:32:40.944Z,8.42
2023-04-23T04:35:09.433Z,8.49
2023-04-23T04:37:38.596Z,8.55
2023-04-23T04:40:08.179Z,8.60
2023-04-23T04:42:39.837Z,8.67
2023-04-23T04:45:08.899Z,8.78
2023-04-23T04:47:38.169Z,8.94
2023-04-23T04:50:07.613Z,9.09
2023-04-23T04:52:36.748Z,9.20
2023-04-23T04:55:07.362Z,9.26
2023-04-23T04:57:36.761Z,9.32
2023-04-23T05:00:22.772Z,9.39
2023-04-23T05:02:51.713Z,9.45
2023-04-23T05:05:22.058Z,9.49
2023-04-23T05:07:51.456Z,9.54
2023-04-23T05:10:20.958Z,9.59
2023-04-23T05:12:49.356Z,9.64
2023-04-23T05:15:18.151Z,9.68
2023-04-23T05:17:46.660Z,9.75
2023-04-23T05:20:15.528Z,9.84
2023-04-23T05:22:43.961Z,9.97
2023-04-23T05:25:13.053Z,10.09
2023-04-23T05:27:42.034Z,10.20
2023-04-23T05:30:11.475Z,10.29
2023-04-23T05:32:40.131Z,10.36
2023-04-23T05:35:09.366Z,10.37
2023-04-23T05:37:38.116Z,10.39
2023-04-23T05:40:07.898Z,10.39
2023-04-23T05:42:37.198Z,10.42
2023-04-23T05:45:08.794Z,10.42
2023-04-23T05:47:38.208Z,10.45
2023-04-23T05:50:07.478Z,10.45
2023-04-23T05:52:37.675Z,10.45
2023-04-23T05:55:08.558Z,10.50
2023-04-23T05:57:38.308Z,10.58
2023-04-23T06:00:10.092Z,10.70
2023-04-23T06:02:42.243Z,10.80
2023-04-23T06:05:11.301Z,10.87
2023-04-23T06:07:41.460Z,10.99
2023-04-23T06:10:11.187Z,11.25
2023-04-23T06:12:40.322Z,11.56
2023-04-23T06:15:09.411Z,11.89
2023-04-23T06:17:39.163Z,12.17
2023-04-23T06:20:09.129Z,12.46
2023-04-23T06:22:38.202Z,12.79
2023-04-23T06:25:06.828Z,13.06
2023-04-23T06:27:35.591Z,13.22
2023-04-23T06:30:09.078Z,13.30
2023-04-23T06:32:38.434Z,13.32
2023-04-23T06:35:08.491Z,13.28
2023-04-23T06:37:37.992Z,13.22
2023-04-23T06:40:06.982Z,13.21
2023-04-23T06:42:35.488Z,13.23
2023-04-23T06:45:24.143Z,13.36
2023-04-23T06:47:52.699Z,13.49
2023-04-23T06:50:21.229Z,13.62
2023-04-23T06:52:49.726Z,13.74
2023-04-23T06:55:18.087Z,13.88
2023-04-23T06:57:48.527Z,14.02
2023-04-23T07:00:17.032Z,14.07
2023-04-23T07:02:47.114Z,14.12
2023-04-23T07:05:16.605Z,14.27
2023-04-23T07:07:45.254Z,14.43
2023-04-23T07:10:15.013Z,14.57
2023-04-23T07:12:45.605Z,14.64
2023-04-23T07:15:14.171Z,14.63
2023-04-23T07:17:43.182Z,14.59
2023-04-23T07:20:12.555Z,14.56
2023-04-23T07:22:41.541Z,14.49
2023-04-23T07:25:10.227Z,14.46
2023-04-23T07:27:38.718Z,14.47
2023-04-23T07:30:08.313Z,14.43
2023-04-23T07:32:37.295Z,14.43
2023-04-23T07:35:06.697Z,14.63
2023-04-23T07:37:36.475Z,14.92
2023-04-23T07:40:06.160Z,15.10
2023-04-23T07:42:35.219Z,15.14
2023-04-23T07:45:04.693Z,15.13
2023-04-23T07:47:33.415Z,15.14
2023-04-23T07:50:01.752Z,15.20
2023-04-23T07:52:31.072Z,15.28
2023-04-23T07:54:59.566Z,15.36
2023-04-23T07:57:27.935Z,15.44
2023-04-23T07:59:56.326Z,15.49
2023-04-23T08:02:26.756Z,15.53
2023-04-23T08:04:55.603Z,15.57
2023-04-23T08:07:24.247Z,15.57
2023-04-23T08:09:52.732Z,15.57
2023-04-23T08:12:22.215Z,15.53
2023-04-23T08:14:51.124Z,15.46
2023-04-23T08:17:19.948Z,15.39
2023-04-23T08:19:48.459Z,15.36
2023-04-23T08:22:17.745Z,15.35
2023-04-23T08:24:46.680Z,15.34
2023-04-23T08:27:15.132Z,15.30
2023-04-23T08:29:43.722Z,15.27
2023-04-23T08:32:12.213Z,15.32
2023-04-23T08:34:40.793Z,15.43
2023-04-23T08:37:16.550Z,15.57
2023-04-23T08:39:51.792Z,15.62
2023-04-23T08:42:26.590Z,15.64
2023-04-23T08:44:55.642Z,15.64
2023-04-23T08:47:25.626Z,15.62
2023-04-23T08:49:56.437Z,15.61
2023-04-23T08:52:27.002Z,15.65
2023-04-23T08:55:01.625Z,15.71
2023-04-23T08:57:31.543Z,15.81
2023-04-23T09:00:01.426Z,15.95
2023-04-23T09:02:30.404Z,16.04
2023-04-23T09:04:59.344Z,16.10
2023-04-23T09:07:28.002Z,16.23
2023-04-23T09:09:57.422Z,16.29
2023-04-23T09:12:26.048Z,16.27
2023-04-23T09:14:54.650Z,16.27
2023-04-23T09:17:23.904Z,16.27
2023-04-23T09:19:55.009Z,16.30
2023-04-23T09:22:44.345Z,16.32
2023-04-23T09:25:18.745Z,16.38
2023-04-23T09:27:47.808Z,16.47
2023-04-23T09:30:17.803Z,16.50
2023-04-23T09:32:47.642Z,16.46
2023-04-23T09:35:19.840Z,16.35
2023-04-23T09:37:51.380Z,16.19
2023-04-23T09:40:22.816Z,16.05
2023-04-23T09:42:54.578Z,15.92
2023-04-23T09:45:25.983Z,15.81
2023-04-23T09:47:56.507Z,15.70
2023-04-23T09:50:34.472Z,15.63
2023-04-23T09:53:04.407Z,15.53
2023-04-23T09:55:37.499Z,15.44
2023-04-23T09:58:11.082Z,15.33
2023-04-23T10:00:40.491Z,15.21
2023-04-23T10:03:10.323Z,15.12
2023-04-23T10:08:16.689Z,15.07
2023-04-23T10:11:02.533Z,15.12
2023-04-23T10:13:36.634Z,15.22
2023-04-23T10:16:20.752Z,15.32
2023-04-23T10:18:53.173Z,15.41
2023-04-23T10:21:32.159Z,15.48
2023-04-23T10:24:11.851Z,15.62
2023-04-23T10:26:43.160Z,15.76
2023-04-23T10:29:18.997Z,15.93
2023-04-23T10:31:48.457Z,16.11
2023-04-23T10:34:17.983Z,16.31
2023-04-23T10:36:46.504Z,16.49
2023-04-23T10:39:24.140Z,16.60
2023-04-23T10:41:59.182Z,16.69
2023-04-23T10:47:15.134Z,16.76
2023-04-23T10:49:44.869Z,16.83
2023-04-23T10:52:20.042Z,16.92
2023-04-23T10:54:58.284Z,16.91
2023-04-23T10:57:26.595Z,16.84
2023-04-23T10:59:56.724Z,16.77
2023-04-23T11:02:26.171Z,16.72
2023-04-23T11:05:01.733Z,16.63
2023-04-23T11:07:32.839Z,16.55
2023-04-23T11:10:13.057Z,16.44
2023-04-23T11:12:41.881Z,16.37
2023-04-23T11:15:15.171Z,16.35
2023-04-23T11:17:49.505Z,16.38
2023-04-23T11:20:22.330Z,16.49
2023-04-23T11:22:51.368Z,16.58
2023-04-23T11:25:22.683Z,16.63
2023-04-23T11:27:53.087Z,16.73
2023-04-23T11:30:24.179Z,16.84
2023-04-23T11:32:54.877Z,16.92
2023-04-23T11:35:29.723Z,16.90
2023-04-23T11:37:58.280Z,16.98
2023-04-23T11:40:31.233Z,17.07
2023-04-23T11:42:59.654Z,17.12
2023-04-23T11:45:29.905Z,17.08
2023-04-23T11:48:01.027Z,17.09
2023-04-23T11:50:33.801Z,17.16
2023-04-23T11:53:08.172Z,17.26
2023-04-23T11:55:37.086Z,17.39
2023-04-23T11:58:05.974Z,17.53
2023-04-23T12:00:34.283Z,17.67
2023-04-23T12:03:06.595Z,17.74
2023-04-23T12:05:39.644Z,17.74
2023-04-23T12:08:14.797Z,17.67
2023-04-23T12:10:55.743Z,17.64
2023-04-23T12:13:30.344Z,17.63
2023-04-23T12:16:03.749Z,17.61
2023-04-23T12:18:35.758Z,17.59
2023-04-23T12:21:07.153Z,17.59
2023-04-23T12:23:37.968Z,17.60
2023-04-23T12:26:12.153Z,17.59
2023-04-23T12:28:55.913Z,17.55
2023-04-23T12:31:27.997Z,17.42
2023-04-23T12:34:03.348Z,17.25
2023-04-23T12:36:33.066Z,17.12
2023-04-23T12:39:19.827Z,17.08
2023-04-23T12:41:53.856Z,17.14
2023-04-23T12:44:22.532Z,17.13
2023-04-23T12:47:15.443Z,17.14
2023-04-23T12:49:44.416Z,17.12
2023-04-23T12:52:13.971Z,16.98
2023-04-23T12:54:44.978Z,16.82
2023-04-23T12:57:22.015Z,16.72
2023-04-23T12:59:50.682Z,16.64
2023-04-23T13:02:19.178Z,16.63
2023-04-23T13:04:47.652Z,16.68
2023-04-23T13:07:15.962Z,16.80
2023-04-23T13:09:44.800Z,16.92
2023-04-23T13:12:13.546Z,17.01
2023-04-23T13:14:41.889Z,17.05
2023-04-23T13:17:10.401Z,17.07
2023-04-23T13:19:40.148Z,17.08
2023-04-23T13:22:08.948Z,17.05
2023-04-23T13:24:38.290Z,17.03
2023-04-23T13:27:06.613Z,17.00
2023-04-23T13:29:35.629Z,16.92
2023-04-23T13:32:03.990Z,16.80
2023-04-23T13:34:34.288Z,16.65
2023-04-23T13:37:05.803Z,16.50
2023-04-23T13:39:34.620Z,16.37
2023-04-23T13:42:09.654Z,16.26
2023-04-23T13:44:38.785Z,16.19
2023-04-23T13:47:07.404Z,16.16
2023-04-23T13:49:36.304Z,16.17
2023-04-23T13:52:07.109Z,16.20
2023-04-23T13:54:36.178Z,16.25
2023-04-23T13:57:04.732Z,16.32
2023-04-23T13:59:34.359Z,16.38
2023-04-23T14:02:02.744Z,16.43
2023-04-23T14:04:31.202Z,16.45
2023-04-23T14:06:59.493Z,16.53
2023-04-23T14:09:30.126Z,16.97
2023-04-23T14:11:58.969Z,17.35
2023-04-23T14:14:27.354Z,16.74
2023-04-23T14:16:56.040Z,16.54
2023-04-23T14:19:24.441Z,16.50
2023-04-23T14:21:52.949Z,17.21
2023-04-23T14:24:28.882Z,17.91
2023-04-23T14:26:57.108Z,17.82
2023-04-23T14:29:35.007Z,16.61
2023-04-23T14:32:03.330Z,16.36
2023-04-23T14:34:35.152Z,15.74
2023-04-23T14:37:03.228Z,15.60
2023-04-23T14:39:30.796Z,14.95
2023-04-23T14:41:58.055Z,14.30
2023-04-23T14:44:26.829Z,13.62
2023-04-23T14:46:54.167Z,13.08
2023-04-23T14:49:21.674Z,12.53
2023-04-23T14:51:54.504Z,12.08
2023-04-23T14:54:22.591Z,11.74
2023-04-23T14:56:51.639Z,11.49
2023-04-23T14:59:18.815Z,11.30
2023-04-23T15:01:46.029Z,11.14
2023-04-23T15:04:13.334Z,10.96
2023-04-23T15:06:40.783Z,10.84
2023-04-23T15:09:07.937Z,10.74
2023-04-23T15:11:35.218Z,10.67
2023-04-23T15:14:20.762Z,10.66
2023-04-23T15:16:49.179Z,10.69
2023-04-23T15:19:18.486Z,10.72
2023-04-23T15:21:47.040Z,10.73
2023-04-23T15:24:15.526Z,10.77
2023-04-23T15:26:43.511Z,10.82
2023-04-23T15:29:10.821Z,10.87
2023-04-23T15:31:38.886Z,10.94
2023-04-23T15:34:09.286Z,11.02
2023-04-23T15:36:37.908Z,11.11
2023-04-23T15:39:09.420Z,11.18
2023-04-23T15:41:40.250Z,11.24
2023-04-23T15:44:12.111Z,11.30
2023-04-23T15:46:40.114Z,11.39
2023-04-23T15:49:07.309Z,11.48
2023-04-23T15:51:34.475Z,11.54
2023-04-23T15:54:02.859Z,11.59
2023-04-23T15:56:30.057Z,11.64
2023-04-23T15:58:57.241Z,11.69
2023-04-23T16:01:27.117Z,11.72
2023-04-23T16:04:09.321Z,11.75
2023-04-23T16:06:37.459Z,11.80
2023-04-23T16:09:07.339Z,11.83
2023-04-23T16:11:38.990Z,11.83
2023-04-23T16:14:07.079Z,11.81
2023-04-23T16:16:34.729Z,11.78
2023-04-23T16:19:05.085Z,11.78
2023-04-23T16:21:32.935Z,11.78
2023-04-23T16:23:59.979Z,11.78
2023-04-23T16:26:28.272Z,11.75
2023-04-23T16:29:05.447Z,11.73
2023-04-23T16:31:39.010Z,11.72
2023-04-23T16:34:06.404Z,11.72
2023-04-23T16:36:33.864Z,11.71
2023-04-23T16:39:01.093Z,11.70
2023-04-23T16:41:28.209Z,11.69
2023-04-23T16:43:55.380Z,11.68
2023-04-23T16:46:22.795Z,11.67
2023-04-23T16:48:50.042Z,11.65
2023-04-23T16:51:17.293Z,11.62
2023-04-23T16:53:44.358Z,11.57
2023-04-23T16:56:11.574Z,11.53
2023-04-23T16:58:38.728Z,11.50
2023-04-23T17:01:05.922Z,11.48
2023-04-23T17:03:34.047Z,11.48
2023-04-23T17:06:18.588Z,11.45
2023-04-23T17:08:46.085Z,11.42
2023-04-23T17:11:13.306Z,11.40
2023-04-23T17:13:43.725Z,11.36
2023-04-23T17:16:11.201Z,11.30
2023-04-23T17:18:38.310Z,11.25
2023-04-23T17:21:05.589Z,11.24
2023-04-23T17:23:32.775Z,11.24
2023-04-23T17:25:59.838Z,11.24
2023-04-23T17:28:27.142Z,11.23
2023-04-23T17:30:56.079Z,11.23
2023-04-23T17:33:23.867Z,11.24
2023-04-23T17:35:52.403Z,11.24
2023-04-23T17:38:21.016Z,11.16
2023-04-23T17:40:49.722Z,11.06
2023-04-23T17:43:18.177Z,11.03
2023-04-23T17:45:47.804Z,11.06
2023-04-23T17:48:16.028Z,11.12
2023-04-23T17:50:44.146Z,11.16
2023-04-23T17:53:11.279Z,11.19
2023-04-23T17:55:38.455Z,11.20
2023-04-23T17:58:05.940Z,11.23
2023-04-23T18:00:37.308Z,11.25
2023-04-23T18:03:05.311Z,11.26
2023-04-23T18:05:32.731Z,11.28
2023-04-23T18:07:59.915Z,11.29
2023-04-23T18:10:27.352Z,11.30
2023-04-23T18:12:56.221Z,11.29
2023-04-23T18:15:25.947Z,11.27
2023-04-23T18:17:55.945Z,11.27
2023-04-23T18:20:25.084Z,11.24
2023-04-23T18:22:56.573Z,11.16
2023-04-23T18:25:25.525Z,11.07
2023-04-23T18:27:53.249Z,11.04
2023-04-23T18:30:23.579Z,11.04
2023-04-23T18:32:59.731Z,11.05
2023-04-23T18:35:30.114Z,11.08
2023-04-23T18:38:07.725Z,11.10
2023-04-23T18:40:35.069Z,11.11
2023-04-23T18:43:02.337Z,11.09
2023-04-23T18:45:29.398Z,11.10
2023-04-23T18:48:22.397Z,11.09
2023-04-23T18:50:52.300Z,11.08
2023-04-23T18:53:21.574Z,11.05
2023-04-23T18:55:49.414Z,11.05
2023-04-23T18:58:16.503Z,11.05
2023-04-23T19:00:43.601Z,11.03
2023-04-23T19:03:23.415Z,11.01
2023-04-23T19:05:53.975Z,10.98
2023-04-23T19:08:22.940Z,10.94
2023-04-23T19:10:49.948Z,10.91
2023-04-23T19:13:18.978Z,10.87
2023-04-23T19:15:46.580Z,10.84
2023-04-23T19:18:13.808Z,10.80
2023-04-23T19:20:41.063Z,10.75
2023-04-23T19:23:09.367Z,10.69
2023-04-23T19:25:36.933Z,10.63
2023-04-23T19:28:04.099Z,10.56
2023-04-23T19:30:32.508Z,10.49
2023-04-23T19:32:59.874Z,10.43
2023-04-23T19:35:27.192Z,10.36
2023-04-23T19:37:54.428Z,10.30
2023-04-23T19:40:21.545Z,10.24
2023-04-23T19:42:49.148Z,10.19
2023-04-23T19:45:18.599Z,10.14
2023-04-23T19:47:45.798Z,10.12
2023-04-23T19:50:14.163Z,10.09
2023-04-23T19:52:41.496Z,10.05
2023-04-23T19:55:09.025Z,9.99
2023-04-23T19:57:36.895Z,9.93
2023-04-23T20:00:07.594Z,9.89
2023-04-23T20:02:35.660Z,9.83
2023-04-23T20:05:03.555Z,9.76
2023-04-23T20:07:31.194Z,9.69
2023-04-23T20:09:58.353Z,9.64
2023-04-23T20:12:25.648Z,9.61
2023-04-23T20:14:54.464Z,9.57
2023-04-23T20:17:22.947Z,9.50
2023-04-23T20:19:50.052Z,9.43
2023-04-23T20:22:17.349Z,9.36
2023-04-23T20:24:46.685Z,9.25
2023-04-23T20:27:14.214Z,9.15
2023-04-23T20:29:42.352Z,9.06
2023-04-23T20:32:09.842Z,8.95
2023-04-23T20:34:37.054Z,8.89
2023-04-23T20:37:04.298Z,8.82
2023-04-23T20:39:32.872Z,8.73
2023-04-23T20:42:01.130Z,8.67
2023-04-23T20:44:28.337Z,8.61
2023-04-23T20:46:58.153Z,8.57
2023-04-23T20:49:26.043Z,8.53
2023-04-23T20:51:53.862Z,8.50
2023-04-23T20:54:20.947Z,8.47
2023-04-23T20:56:48.088Z,8.45
2023-04-23T20:59:15.509Z,8.41
2023-04-23T21:01:42.958Z,8.36
2023-04-23T21:04:11.115Z,8.30
2023-04-23T21:06:38.700Z,8.20
2023-04-23T21:09:06.338Z,8.12
2023-04-23T21:11:33.666Z,8.06
2023-04-23T21:14:01.805Z,7.99
2023-04-23T21:16:29.030Z,7.93
2023-04-23T21:18:56.238Z,7.87
2023-04-23T21:21:28.164Z,7.82
2023-04-23T21:23:56.467Z,7.78
2023-04-23T21:26:24.308Z,7.76
2023-04-23T21:28:51.467Z,7.74
2023-04-23T21:31:27.199Z,7.72
2023-04-23T21:33:56.574Z,7.69
2023-04-23T21:36:23.957Z,7.65
2023-04-23T21:38:53.320Z,7.60
2023-04-23T21:41:20.507Z,7.55
2023-04-23T21:43:47.566Z,7.51
2023-04-23T21:46:14.748Z,7.46
2023-04-23T21:48:41.962Z,7.41
2023-04-23T21:51:09.089Z,7.36
2023-04-23T21:53:36.138Z,7.32
2023-04-23T21:56:03.429Z,7.30
2023-04-23T21:58:32.765Z,7.29
2023-04-23T22:01:00.415Z,7.28
2023-04-23T22:03:38.446Z,7.25
2023-04-23T22:06:07.107Z,7.17
2023-04-23T22:08:35.072Z,7.15
2023-04-23T22:11:02.260Z,7.15
2023-04-23T22:13:29.305Z,7.17
2023-04-23T22:15:57.509Z,7.18
2023-04-23T22:18:24.794Z,7.17
2023-04-23T22:20:53.207Z,7.16
2023-04-23T22:23:21.870Z,7.18
2023-04-23T22:25:49.056Z,7.19
2023-04-23T22:28:16.965Z,7.20
2023-04-23T22:30:46.689Z,7.21
2023-04-23T22:33:13.949Z,7.20
2023-04-23T22:35:41.557Z,7.15
2023-04-23T22:38:10.019Z,7.09
2023-04-23T22:40:37.084Z,7.08
2023-04-23T22:43:04.148Z,7.08
2023-04-23T22:45:32.425Z,7.09
2023-04-23T22:47:59.845Z,7.05
2023-04-23T22:50:27.834Z,6.96
2023-04-23T22:52:54.880Z,6.89
2023-04-23T22:55:21.998Z,6.85
2023-04-23T22:57:49.407Z,6.79
2023-04-23T23:00:16.754Z,6.73
2023-04-23T23:02:43.842Z,6.71
2023-04-23T23:05:11.602Z,6.70
2023-04-23T23:07:38.853Z,6.65
2023-04-23T23:10:09.139Z,6.60
2023-04-23T23:12:37.443Z,6.54
2023-04-23T23:15:06.136Z,6.46
2023-04-23T23:17:33.304Z,6.38
2023-04-23T23:20:00.537Z,6.37
2023-04-23T23:22:27.755Z,6.38
2023-04-23T23:24:54.952Z,6.40
2023-04-23T23:27:22.179Z,6.42
2023-04-23T23:29:49.342Z,6.43
2023-04-23T23:32:18.010Z,6.41
2023-04-23T23:34:45.397Z,6.38
2023-04-23T23:37:12.492Z,6.37
2023-04-23T23:39:40.002Z,6.33
2023-04-23T23:42:07.457Z,6.30
2023-04-23T23:44:34.635Z,6.28
2023-04-23T23:47:01.841Z,6.27
2023-04-23T23:49:29.096Z,6.25
2023-04-23T23:51:56.647Z,6.22
2023-04-23T23:54:23.776Z,6.21
2023-04-23T23:56:51.119Z,6.20
2023-04-23T23:59:18.167Z,6.18
